createdAt,value
2018-12-24T00:00:22.099Z,0.00
2018-12-24T00:01:22.075Z,0.00
2018-12-24T00:02:21.989Z,0.00
2018-12-24T00:03:21.933Z,0.00
2018-12-24T00:04:21.876Z,0.00
2018-12-24T00:05:21.821Z,0.00
2018-12-24T00:06:21.793Z,0.00
2018-12-24T00:07:21.720Z,0.00
2018-12-24T00:08:21.654Z,0.00
2018-12-24T00:09:21.630Z,0.00
2018-12-24T00:10:21.542Z,0.00
2018-12-24T00:11:21.488Z,0.00
2018-12-24T00:12:21.432Z,0.00
2018-12-24T00:13:21.374Z,0.00
2018-12-24T00:14:21.350Z,0.00
2018-12-24T00:15:21.265Z,0.00
2018-12-24T00:16:21.244Z,0.00
2018-12-24T00:17:21.155Z,0.00
2018-12-24T00:18:21.095Z,0.00
2018-12-24T00:19:21.041Z,0.00
2018-12-24T00:20:20.989Z,0.00
2018-12-24T00:21:20.962Z,0.00
2018-12-24T00:22:20.879Z,0.00
2018-12-24T00:23:20.818Z,0.00
2018-12-24T00:24:20.779Z,0.00
2018-12-24T00:25:20.742Z,0.00
2018-12-24T00:26:20.656Z,0.00
2018-12-24T00:27:20.597Z,0.00
2018-12-24T00:28:20.539Z,0.00
2018-12-24T00:29:20.490Z,0.00
2018-12-24T00:30:20.467Z,0.00
2018-12-24T00:31:20.388Z,0.00
2018-12-24T00:32:20.329Z,0.00
2018-12-24T00:33:20.294Z,0.00
2018-12-24T00:34:20.217Z,0.00
2018-12-24T00:35:20.154Z,0.00
2018-12-24T00:36:20.090Z,0.00
2018-12-24T00:37:20.043Z,0.00
2018-12-24T00:38:20.017Z,0.00
2018-12-24T00:39:19.929Z,0.00
2018-12-24T00:40:19.875Z,0.00
2018-12-24T00:41:19.854Z,0.00
2018-12-24T00:42:19.754Z,0.00
2018-12-24T00:43:19.699Z,0.00
2018-12-24T00:44:19.661Z,0.00
2018-12-24T00:45:19.625Z,0.00
2018-12-24T00:46:19.578Z,0.00
2018-12-24T00:47:19.487Z,0.00
2018-12-24T00:48:19.431Z,0.00
2018-12-24T00:49:19.406Z,0.00
2018-12-24T00:50:19.316Z,0.00
2018-12-24T00:51:19.257Z,0.00
2018-12-24T00:52:19.201Z,0.00
2018-12-24T00:53:19.145Z,0.00
2018-12-24T00:54:19.106Z,0.00
2018-12-24T00:55:19.029Z,0.00
2018-12-24T00:56:20.082Z,0.00
2018-12-24T00:57:18.916Z,0.00
2018-12-24T00:58:18.860Z,0.00
2018-12-24T00:59:18.835Z,0.00
2018-12-24T01:00:18.746Z,0.00
2018-12-24T01:01:18.692Z,0.00
2018-12-24T01:02:18.637Z,0.00
2018-12-24T01:03:18.616Z,0.00
2018-12-24T01:04:18.533Z,0.00
2018-12-24T01:05:18.467Z,0.00
2018-12-24T01:06:18.412Z,0.00
2018-12-24T01:07:18.355Z,0.00
2018-12-24T01:08:18.331Z,0.00
2018-12-24T01:09:18.242Z,0.00
2018-12-24T01:10:18.184Z,0.00
2018-12-24T01:11:18.172Z,0.00
2018-12-24T01:12:24.531Z,0.00
2018-12-24T01:13:18.018Z,0.00
2018-12-24T01:14:17.966Z,0.00
2018-12-24T01:15:17.905Z,0.00
2018-12-24T01:16:17.889Z,0.00
2018-12-24T01:17:17.790Z,0.00
2018-12-24T01:18:17.733Z,0.00
2018-12-24T01:19:17.677Z,0.00
2018-12-24T01:20:17.634Z,0.00
2018-12-24T01:21:17.613Z,0.00
2018-12-24T01:22:17.513Z,0.00
2018-12-24T01:23:17.458Z,0.00
2018-12-24T01:24:17.395Z,0.00
2018-12-24T01:25:17.342Z,0.00
2018-12-24T01:26:17.315Z,0.00
2018-12-24T01:27:17.235Z,0.00
2018-12-24T01:28:17.174Z,0.00
2018-12-24T01:29:17.114Z,0.00
2018-12-24T01:30:17.090Z,0.00
2018-12-24T01:31:16.999Z,0.00
2018-12-24T01:32:16.943Z,0.00
2018-12-24T01:33:16.895Z,0.00
2018-12-24T01:34:16.832Z,0.00
2018-12-24T01:35:16.814Z,0.00
2018-12-24T01:36:16.718Z,0.00
2018-12-24T01:37:16.660Z,0.00
2018-12-24T01:38:16.603Z,0.00
2018-12-24T01:39:16.555Z,0.00
2018-12-24T01:40:16.533Z,0.00
2018-12-24T01:41:16.436Z,0.00
2018-12-24T01:42:16.464Z,0.00
2018-12-24T01:43:16.325Z,0.00
2018-12-24T01:44:16.265Z,0.00
2018-12-24T01:45:16.250Z,0.00
2018-12-24T01:46:16.152Z,0.00
2018-12-24T01:47:16.099Z,0.00
2018-12-24T01:48:16.041Z,0.00
2018-12-24T01:49:15.989Z,0.00
2018-12-24T01:50:15.967Z,0.00
2018-12-24T01:51:15.871Z,0.00
2018-12-24T01:52:15.813Z,0.00
2018-12-24T01:53:15.757Z,0.00
2018-12-24T01:54:15.698Z,0.00
2018-12-24T01:55:15.673Z,0.00
2018-12-24T01:56:15.631Z,0.00
2018-12-24T01:57:15.597Z,0.00
2018-12-24T01:58:15.473Z,0.00
2018-12-24T01:59:16.883Z,0.00
2018-12-24T02:00:15.359Z,0.00
2018-12-24T02:01:15.353Z,0.00
2018-12-24T02:02:15.247Z,0.00
2018-12-24T02:03:15.189Z,0.00
2018-12-24T02:04:15.134Z,0.00
2018-12-24T02:05:15.075Z,0.00
2018-12-24T02:06:15.058Z,0.00
2018-12-24T02:07:14.965Z,0.00
2018-12-24T02:08:14.907Z,0.00
2018-12-24T02:09:14.853Z,0.00
2018-12-24T02:10:14.805Z,0.00
2018-12-24T02:11:14.765Z,0.00
2018-12-24T02:12:14.709Z,0.00
2018-12-24T02:13:14.627Z,0.00
2018-12-24T02:14:14.564Z,0.00
2018-12-24T02:15:14.506Z,0.00
2018-12-24T02:16:14.450Z,0.00
2018-12-24T02:17:14.437Z,0.00
2018-12-24T02:18:14.343Z,0.00
2018-12-24T02:19:14.281Z,0.00
2018-12-24T02:20:14.224Z,0.00
2018-12-24T02:21:14.167Z,0.00
2018-12-24T02:22:14.140Z,0.00
2018-12-24T02:23:14.055Z,0.00
2018-12-24T02:24:13.997Z,0.00
2018-12-24T02:25:14.075Z,0.00
2018-12-24T02:26:13.883Z,0.00
2018-12-24T02:27:13.824Z,0.00
2018-12-24T02:28:13.774Z,0.00
2018-12-24T02:29:13.743Z,0.00
2018-12-24T02:30:13.657Z,0.00
2018-12-24T02:31:13.599Z,0.00
2018-12-24T02:32:13.541Z,0.00
2018-12-24T02:33:13.487Z,0.00
2018-12-24T02:34:13.457Z,0.00
2018-12-24T02:35:13.370Z,0.00
2018-12-24T02:36:13.315Z,0.00
2018-12-24T02:37:13.294Z,0.00
2018-12-24T02:38:13.200Z,0.00
2018-12-24T02:39:13.142Z,0.00
2018-12-24T02:40:13.081Z,0.00
2018-12-24T02:41:13.027Z,0.00
2018-12-24T02:42:13.001Z,0.00
2018-12-24T02:43:12.911Z,0.00
2018-12-24T02:44:12.856Z,0.00
2018-12-24T02:45:12.802Z,0.00
2018-12-24T02:46:12.776Z,0.00
2018-12-24T02:47:12.717Z,0.00
2018-12-24T02:48:12.626Z,0.00
2018-12-24T02:49:12.573Z,0.00
2018-12-24T02:50:12.546Z,0.00
2018-12-24T02:51:12.456Z,0.00
2018-12-24T02:52:12.401Z,0.00
2018-12-24T02:53:12.380Z,0.00
2018-12-24T02:54:12.285Z,0.00
2018-12-24T02:55:12.228Z,0.00
2018-12-24T02:56:12.202Z,0.00
2018-12-24T02:57:12.112Z,0.00
2018-12-24T02:58:12.054Z,0.00
2018-12-24T02:59:12.028Z,0.00
2018-12-24T03:00:11.942Z,0.00
2018-12-24T03:01:11.887Z,0.00
2018-12-24T03:02:11.858Z,0.00
2018-12-24T03:03:11.766Z,0.00
2018-12-24T03:04:11.710Z,0.00
2018-12-24T03:05:11.703Z,0.00
2018-12-24T03:06:11.597Z,0.00
2018-12-24T03:07:11.540Z,0.00
2018-12-24T03:08:11.490Z,0.00
2018-12-24T03:09:11.428Z,0.00
2018-12-24T03:10:11.415Z,0.00
2018-12-24T03:11:11.354Z,0.00
2018-12-24T03:12:11.254Z,0.00
2018-12-24T03:13:11.195Z,0.00
2018-12-24T03:14:11.137Z,0.00
2018-12-24T03:15:11.113Z,0.00
2018-12-24T03:16:11.026Z,0.00
2018-12-24T03:17:10.966Z,0.00
2018-12-24T03:18:10.940Z,0.00
2018-12-24T03:19:10.897Z,0.00
2018-12-24T03:20:10.795Z,0.00
2018-12-24T03:21:10.736Z,0.00
2018-12-24T03:22:10.720Z,0.00
2018-12-24T03:23:10.620Z,0.00
2018-12-24T03:24:10.566Z,0.00
2018-12-24T03:25:10.505Z,0.00
2018-12-24T03:26:10.448Z,0.00
2018-12-24T03:27:10.512Z,0.00
2018-12-24T03:28:10.336Z,0.00
2018-12-24T03:29:10.281Z,0.00
2018-12-24T03:30:10.220Z,0.00
2018-12-24T03:31:10.165Z,0.00
2018-12-24T03:32:10.162Z,0.00
2018-12-24T03:33:10.061Z,0.00
2018-12-24T03:34:09.988Z,0.00
2018-12-24T03:35:09.931Z,0.00
2018-12-24T03:36:09.875Z,0.00
2018-12-24T03:37:09.858Z,0.00
2018-12-24T03:38:09.763Z,0.00
2018-12-24T03:39:09.700Z,0.00
2018-12-24T03:40:09.647Z,0.00
2018-12-24T03:41:09.588Z,0.00
2018-12-24T03:42:09.563Z,0.00
2018-12-24T03:43:12.946Z,0.00
2018-12-24T03:44:09.425Z,0.00
2018-12-24T03:45:09.363Z,0.00
2018-12-24T03:46:09.332Z,0.00
2018-12-24T03:47:09.244Z,0.00
2018-12-24T03:48:09.184Z,0.00
2018-12-24T03:49:09.161Z,0.00
2018-12-24T03:50:09.070Z,0.00
2018-12-24T03:51:09.012Z,0.00
2018-12-24T03:52:09.063Z,0.00
2018-12-24T03:53:08.931Z,0.00
2018-12-24T03:54:08.842Z,0.00
2018-12-24T03:55:08.820Z,0.00
2018-12-24T03:56:08.731Z,0.00
2018-12-24T03:57:08.673Z,0.00
2018-12-24T03:58:08.613Z,0.00
2018-12-24T03:59:08.583Z,0.00
2018-12-24T04:00:08.498Z,0.00
2018-12-24T04:01:08.440Z,0.00
2018-12-24T04:02:08.384Z,0.00
2018-12-24T04:03:08.323Z,0.00
2018-12-24T04:04:08.297Z,0.00
2018-12-24T04:05:08.241Z,0.00
2018-12-24T04:06:08.150Z,0.00
2018-12-24T04:07:08.103Z,0.00
2018-12-24T04:08:08.036Z,0.00
2018-12-24T04:09:07.979Z,0.00
2018-12-24T04:10:07.953Z,0.00
2018-12-24T04:11:07.870Z,0.00
2018-12-24T04:12:07.805Z,0.00
2018-12-24T04:13:07.751Z,0.00
2018-12-24T04:14:07.692Z,0.00
2018-12-24T04:15:07.671Z,0.00
2018-12-24T04:16:07.577Z,0.00
2018-12-24T04:17:07.521Z,0.00
2018-12-24T04:18:07.463Z,0.00
2018-12-24T04:19:07.405Z,0.00
2018-12-24T04:20:07.379Z,0.00
2018-12-24T04:21:07.305Z,0.00
2018-12-24T04:22:07.233Z,0.00
2018-12-24T04:23:07.181Z,0.00
2018-12-24T04:24:07.119Z,0.00
2018-12-24T04:25:07.093Z,0.00
2018-12-24T04:26:07.001Z,0.00
2018-12-24T04:27:06.986Z,0.00
2018-12-24T04:28:06.888Z,0.00
2018-12-24T04:29:06.830Z,0.00
2018-12-24T04:30:06.773Z,0.00
2018-12-24T04:31:06.730Z,0.00
2018-12-24T04:32:06.699Z,0.00
2018-12-24T04:33:06.604Z,0.00
2018-12-24T04:34:06.546Z,0.00
2018-12-24T04:35:06.485Z,0.00
2018-12-24T04:36:06.428Z,0.00
2018-12-24T04:37:06.407Z,0.00
2018-12-24T04:38:06.316Z,0.00
2018-12-24T04:39:06.258Z,0.00
2018-12-24T04:40:06.200Z,0.00
2018-12-24T04:41:06.143Z,0.00
2018-12-24T04:42:06.118Z,0.00
2018-12-24T04:43:06.027Z,0.00
2018-12-24T04:44:06.000Z,0.00
2018-12-24T04:45:05.913Z,0.00
2018-12-24T04:46:05.856Z,0.00
2018-12-24T04:47:05.810Z,0.00
2018-12-24T04:48:05.773Z,0.00
2018-12-24T04:49:05.683Z,0.00
2018-12-24T04:50:05.626Z,0.00
2018-12-24T04:51:05.608Z,0.00
2018-12-24T04:52:05.510Z,0.00
2018-12-24T04:53:05.454Z,0.00
2018-12-24T04:54:05.396Z,0.00
2018-12-24T04:55:05.341Z,0.00
2018-12-24T04:56:05.311Z,0.00
2018-12-24T04:57:05.223Z,0.00
2018-12-24T04:58:05.169Z,0.00
2018-12-24T04:59:05.113Z,0.00
2018-12-24T05:00:05.083Z,0.00
2018-12-24T05:01:04.997Z,0.00
2018-12-24T05:02:04.966Z,0.00
2018-12-24T05:03:04.883Z,0.00
2018-12-24T05:04:04.825Z,0.00
2018-12-24T05:05:04.768Z,0.00
2018-12-24T05:06:04.741Z,0.00
2018-12-24T05:07:04.651Z,0.00
2018-12-24T05:08:04.592Z,0.00
2018-12-24T05:09:04.535Z,0.00
2018-12-24T05:10:04.513Z,0.00
2018-12-24T05:11:04.426Z,0.00
2018-12-24T05:12:04.394Z,0.00
2018-12-24T05:13:04.312Z,0.00
2018-12-24T05:14:04.276Z,0.00
2018-12-24T05:15:04.193Z,0.00
2018-12-24T05:16:04.133Z,0.00
2018-12-24T05:17:04.075Z,0.00
2018-12-24T05:18:04.016Z,0.00
2018-12-24T05:19:03.992Z,0.00
2018-12-24T05:20:03.903Z,0.00
2018-12-24T05:21:03.843Z,0.00
2018-12-24T05:22:03.798Z,0.00
2018-12-24T05:23:03.729Z,0.00
2018-12-24T05:24:03.718Z,0.00
2018-12-24T05:25:03.615Z,0.00
2018-12-24T05:26:03.569Z,0.00
2018-12-24T05:27:03.500Z,0.00
2018-12-24T05:28:03.444Z,0.00
2018-12-24T05:29:03.419Z,0.00
2018-12-24T05:30:03.326Z,0.00
2018-12-24T05:31:03.269Z,0.00
2018-12-24T05:32:03.241Z,0.00
2018-12-24T05:33:03.162Z,0.00
2018-12-24T05:34:03.132Z,0.00
2018-12-24T05:35:03.039Z,0.00
2018-12-24T05:36:02.985Z,0.00
2018-12-24T05:37:02.966Z,0.00
2018-12-24T05:38:02.866Z,0.00
2018-12-24T05:39:02.810Z,0.00
2018-12-24T05:40:02.776Z,0.00
2018-12-24T05:41:02.695Z,0.00
2018-12-24T05:42:02.671Z,0.00
2018-12-24T05:43:02.586Z,0.00
2018-12-24T05:44:02.526Z,0.00
2018-12-24T05:45:02.468Z,0.00
2018-12-24T05:46:02.443Z,0.00
2018-12-24T05:47:02.353Z,0.00
2018-12-24T05:48:02.328Z,0.00
2018-12-24T05:49:02.273Z,0.00
2018-12-24T05:50:02.178Z,0.00
2018-12-24T05:51:02.127Z,0.00
2018-12-24T05:52:02.068Z,0.00
2018-12-24T05:53:02.010Z,0.00
2018-12-24T05:54:01.983Z,0.00
2018-12-24T05:55:01.905Z,0.00
2018-12-24T05:56:01.839Z,0.00
2018-12-24T05:57:01.788Z,0.00
2018-12-24T05:58:01.732Z,0.00
2018-12-24T05:59:01.698Z,0.00
2018-12-24T06:00:01.612Z,0.00
2018-12-24T06:01:01.556Z,0.00
2018-12-24T06:02:01.497Z,0.00
2018-12-24T06:03:01.435Z,0.00
2018-12-24T06:04:01.414Z,0.00
2018-12-24T06:05:01.328Z,0.00
2018-12-24T06:06:01.265Z,0.00
2018-12-24T06:07:01.208Z,0.00
2018-12-24T06:08:01.193Z,0.00
2018-12-24T06:09:01.099Z,0.00
2018-12-24T06:10:01.131Z,0.00
2018-12-24T06:11:00.977Z,0.00
2018-12-24T06:12:00.924Z,0.00
2018-12-24T06:13:00.895Z,0.00
2018-12-24T06:14:00.813Z,0.00
2018-12-24T06:15:00.755Z,0.00
2018-12-24T06:16:00.735Z,0.00
2018-12-24T06:17:00.646Z,0.00
2018-12-24T06:18:00.580Z,0.00
2018-12-24T06:19:00.521Z,0.00
2018-12-24T06:20:00.466Z,0.00
2018-12-24T06:21:00.447Z,0.00
2018-12-24T06:22:00.349Z,0.00
2018-12-24T06:23:00.302Z,0.00
2018-12-24T06:24:00.240Z,0.00
2018-12-24T06:25:00.181Z,0.00
2018-12-24T06:26:00.161Z,0.00
2018-12-24T06:27:00.064Z,0.00
2018-12-24T06:28:00.007Z,0.00
2018-12-24T06:28:59.950Z,0.00
2018-12-24T06:29:59.892Z,0.00
2018-12-24T06:30:59.879Z,0.00
2018-12-24T06:31:59.780Z,0.00
2018-12-24T06:32:59.728Z,0.00
2018-12-24T06:33:59.702Z,0.00
2018-12-24T06:34:59.609Z,0.00
2018-12-24T06:35:59.549Z,0.00
2018-12-24T06:36:59.536Z,0.00
2018-12-24T06:37:59.437Z,0.00
2018-12-24T06:38:59.377Z,0.00
2018-12-24T06:39:59.321Z,0.00
2018-12-24T06:40:59.263Z,0.00
2018-12-24T06:41:59.236Z,0.00
2018-12-24T06:42:59.154Z,0.00
2018-12-24T06:44:06.521Z,0.00
2018-12-24T06:44:59.065Z,0.00
2018-12-24T06:45:59.009Z,0.00
2018-12-24T06:46:58.921Z,0.00
2018-12-24T06:47:58.895Z,0.00
2018-12-24T06:48:58.807Z,0.00
2018-12-24T06:49:58.746Z,0.00
2018-12-24T06:50:58.690Z,0.00
2018-12-24T06:51:58.639Z,0.00
2018-12-24T06:52:58.608Z,0.00
2018-12-24T06:53:58.518Z,0.00
2018-12-24T06:54:58.463Z,0.00
2018-12-24T06:55:58.436Z,0.00
2018-12-24T06:56:58.347Z,0.00
2018-12-24T06:57:58.296Z,0.00
2018-12-24T06:58:58.234Z,0.00
2018-12-24T06:59:58.213Z,4.00
2018-12-24T07:00:58.118Z,0.00
2018-12-24T07:01:58.061Z,0.00
2018-12-24T07:02:58.037Z,4.00
2018-12-24T07:03:57.946Z,4.00
2018-12-24T07:04:57.890Z,4.00
2018-12-24T07:05:57.837Z,4.00
2018-12-24T07:06:57.776Z,4.00
2018-12-24T07:07:57.749Z,4.00
2018-12-24T07:08:57.659Z,4.00
2018-12-24T07:09:57.604Z,4.00
2018-12-24T07:10:57.548Z,4.00
2018-12-24T07:11:57.489Z,8.00
2018-12-24T07:12:57.468Z,4.00
2018-12-24T07:13:57.375Z,4.00
2018-12-24T07:14:57.319Z,8.00
2018-12-24T07:15:57.264Z,8.00
2018-12-24T07:16:57.206Z,8.00
2018-12-24T07:17:57.183Z,16.00
2018-12-24T07:18:57.089Z,12.00
2018-12-24T07:19:57.032Z,20.00
2018-12-24T07:20:56.975Z,20.00
2018-12-24T07:21:56.918Z,24.00
2018-12-24T07:22:56.890Z,28.00
2018-12-24T07:23:56.800Z,36.00
2018-12-24T07:24:56.749Z,48.00
2018-12-24T07:25:56.685Z,60.00
2018-12-24T07:26:56.632Z,52.00
2018-12-24T07:27:56.661Z,64.00
2018-12-24T07:28:59.175Z,52.00
2018-12-24T07:29:56.489Z,44.00
2018-12-24T07:30:56.438Z,48.00
2018-12-24T07:31:56.348Z,56.00
2018-12-24T07:32:56.288Z,64.00
2018-12-24T07:33:56.266Z,56.00
2018-12-24T07:34:56.174Z,44.00
2018-12-24T07:35:56.124Z,44.00
2018-12-24T07:36:56.096Z,48.00
2018-12-24T07:37:56.003Z,44.00
2018-12-24T07:38:56.017Z,56.00
2018-12-24T07:39:55.886Z,68.00
2018-12-24T07:40:55.879Z,80.00
2018-12-24T07:41:55.830Z,84.00
2018-12-24T07:42:55.722Z,96.00
2018-12-24T07:43:55.670Z,108.00
2018-12-24T07:44:55.598Z,132.00
2018-12-24T07:45:55.547Z,180.00
2018-12-24T07:46:55.523Z,240.00
2018-12-24T07:47:55.431Z,256.00
2018-12-24T07:48:55.374Z,236.00
2018-12-24T07:49:55.315Z,300.00
2018-12-24T07:50:55.257Z,328.00
2018-12-24T07:51:55.237Z,324.00
2018-12-24T07:52:55.140Z,308.00
2018-12-24T07:53:55.083Z,284.00
2018-12-24T07:54:55.029Z,224.00
2018-12-24T07:55:54.971Z,192.00
2018-12-24T07:56:54.943Z,228.00
2018-12-24T07:57:54.854Z,284.00
2018-12-24T07:58:54.797Z,344.00
2018-12-24T07:59:54.747Z,344.00
2018-12-24T08:00:54.722Z,288.00
2018-12-24T08:01:54.625Z,220.00
2018-12-24T08:02:54.599Z,196.00
2018-12-24T08:03:54.509Z,216.00
2018-12-24T08:04:54.484Z,232.00
2018-12-24T08:05:54.400Z,236.00
2018-12-24T08:06:54.339Z,236.00
2018-12-24T08:07:54.285Z,256.00
2018-12-24T08:08:54.225Z,252.00
2018-12-24T08:09:54.208Z,252.00
2018-12-24T08:10:54.110Z,236.00
2018-12-24T08:11:54.056Z,208.00
2018-12-24T08:12:53.997Z,196.00
2018-12-24T08:13:53.936Z,192.00
2018-12-24T08:14:53.911Z,164.00
2018-12-24T08:15:53.823Z,172.00
2018-12-24T08:16:53.838Z,180.00
2018-12-24T08:17:53.710Z,164.00
2018-12-24T08:18:53.651Z,180.00
2018-12-24T08:19:53.631Z,208.00
2018-12-24T08:20:53.595Z,200.00
2018-12-24T08:21:53.484Z,176.00
2018-12-24T08:22:53.422Z,192.00
2018-12-24T08:23:53.372Z,212.00
2018-12-24T08:24:53.341Z,204.00
2018-12-24T08:25:53.252Z,200.00
2018-12-24T08:26:53.937Z,224.00
2018-12-24T08:27:53.141Z,232.00
2018-12-24T08:28:53.116Z,196.00
2018-12-24T08:29:53.019Z,192.00
2018-12-24T08:30:52.966Z,208.00
2018-12-24T08:31:52.943Z,216.00
2018-12-24T08:32:52.850Z,232.00
2018-12-24T08:33:52.832Z,264.00
2018-12-24T08:34:52.738Z,260.00
2018-12-24T08:35:52.682Z,212.00
2018-12-24T08:36:52.667Z,188.00
2018-12-24T08:37:52.564Z,200.00
2018-12-24T08:38:52.538Z,224.00
2018-12-24T08:39:52.456Z,252.00
2018-12-24T08:40:52.423Z,244.00
2018-12-24T08:41:52.342Z,216.00
2018-12-24T08:42:52.277Z,204.00
2018-12-24T08:43:52.221Z,236.00
2018-12-24T08:44:52.251Z,232.00
2018-12-24T08:45:52.110Z,268.00
2018-12-24T08:46:52.051Z,276.00
2018-12-24T08:47:52.053Z,284.00
2018-12-24T08:48:51.936Z,284.00
2018-12-24T08:49:51.940Z,308.00
2018-12-24T08:50:51.820Z,360.00
2018-12-24T08:51:51.763Z,324.00
2018-12-24T08:52:51.711Z,268.00
2018-12-24T08:53:51.648Z,260.00
2018-12-24T08:54:51.623Z,220.00
2018-12-24T08:55:51.536Z,180.00
2018-12-24T08:56:51.482Z,176.00
2018-12-24T08:57:51.419Z,176.00
2018-12-24T08:58:51.395Z,200.00
2018-12-24T08:59:51.306Z,212.00
2018-12-24T09:00:51.251Z,236.00
2018-12-24T09:01:51.192Z,288.00
2018-12-24T09:02:51.137Z,348.00
2018-12-24T09:03:51.450Z,384.00
2018-12-24T09:04:51.025Z,464.00
2018-12-24T09:05:50.964Z,604.00
2018-12-24T09:06:50.942Z,740.00
2018-12-24T09:07:50.851Z,788.00
2018-12-24T09:08:50.798Z,708.00
2018-12-24T09:09:50.735Z,596.00
2018-12-24T09:10:50.679Z,532.00
2018-12-24T09:11:50.656Z,516.00
2018-12-24T09:12:50.574Z,516.00
2018-12-24T09:13:50.508Z,484.00
2018-12-24T09:14:50.629Z,504.00
2018-12-24T09:15:50.396Z,532.00
2018-12-24T09:16:50.375Z,572.00
2018-12-24T09:17:50.278Z,636.00
2018-12-24T09:18:50.224Z,668.00
2018-12-24T09:19:50.196Z,596.00
2018-12-24T09:20:52.722Z,524.00
2018-12-24T09:21:50.175Z,444.00
2018-12-24T09:22:50.019Z,432.00
2018-12-24T09:23:49.938Z,484.00
2018-12-24T09:24:49.918Z,488.00
2018-12-24T09:25:49.823Z,472.00
2018-12-24T09:26:49.773Z,412.00
2018-12-24T09:27:49.711Z,396.00
2018-12-24T09:28:49.654Z,372.00
2018-12-24T09:29:49.627Z,372.00
2018-12-24T09:30:49.548Z,392.00
2018-12-24T09:31:49.482Z,432.00
2018-12-24T09:32:49.426Z,444.00
2018-12-24T09:33:49.368Z,412.00
2018-12-24T09:34:49.345Z,412.00
2018-12-24T09:35:49.256Z,436.00
2018-12-24T09:36:49.199Z,436.00
2018-12-24T09:37:49.142Z,420.00
2018-12-24T09:38:49.086Z,380.00
2018-12-24T09:39:49.066Z,368.00
2018-12-24T09:40:48.979Z,352.00
2018-12-24T09:41:48.949Z,368.00
2018-12-24T09:42:48.859Z,380.00
2018-12-24T09:43:48.801Z,340.00
2018-12-24T09:44:48.745Z,300.00
2018-12-24T09:45:48.833Z,292.00
2018-12-24T09:46:48.661Z,308.00
2018-12-24T09:47:48.573Z,304.00
2018-12-24T09:48:48.519Z,292.00
2018-12-24T09:49:48.459Z,300.00
2018-12-24T09:50:48.401Z,296.00
2018-12-24T09:51:48.377Z,292.00
2018-12-24T09:52:48.288Z,292.00
2018-12-24T09:53:48.233Z,316.00
2018-12-24T09:54:48.181Z,348.00
2018-12-24T09:55:48.152Z,408.00
2018-12-24T09:56:48.067Z,476.00
2018-12-24T09:57:48.005Z,500.00
2018-12-24T09:58:47.943Z,520.00
2018-12-24T09:59:47.886Z,524.00
2018-12-24T10:00:47.864Z,540.00
2018-12-24T10:01:47.775Z,520.00
2018-12-24T10:02:47.717Z,488.00
2018-12-24T10:03:47.663Z,472.00
2018-12-24T10:04:47.613Z,460.00
2018-12-24T10:05:47.590Z,416.00
2018-12-24T10:06:47.489Z,388.00
2018-12-24T10:07:47.432Z,388.00
2018-12-24T10:08:47.375Z,356.00
2018-12-24T10:09:47.318Z,308.00
2018-12-24T10:10:47.298Z,264.00
2018-12-24T10:11:47.207Z,268.00
2018-12-24T10:12:47.154Z,308.00
2018-12-24T10:13:47.123Z,380.00
2018-12-24T10:14:47.035Z,472.00
2018-12-24T10:15:46.978Z,488.00
2018-12-24T10:16:46.952Z,436.00
2018-12-24T10:17:46.888Z,364.00
2018-12-24T10:18:46.807Z,396.00
2018-12-24T10:19:46.750Z,476.00
2018-12-24T10:20:46.696Z,524.00
2018-12-24T10:21:46.666Z,428.00
2018-12-24T10:22:46.608Z,408.00
2018-12-24T10:23:46.524Z,424.00
2018-12-24T10:24:46.466Z,488.00
2018-12-24T10:25:46.407Z,556.00
2018-12-24T10:26:46.349Z,652.00
2018-12-24T10:27:46.376Z,744.00
2018-12-24T10:28:46.239Z,936.00
2018-12-24T10:29:46.212Z,1164.00
2018-12-24T10:30:46.122Z,1492.00
2018-12-24T10:31:46.067Z,1644.00
2018-12-24T10:32:46.040Z,1516.00
2018-12-24T10:33:45.956Z,1384.00
2018-12-24T10:34:45.928Z,1212.00
2018-12-24T10:35:45.837Z,948.00
2018-12-24T10:36:45.786Z,828.00
2018-12-24T10:37:45.723Z,800.00
2018-12-24T10:38:45.693Z,868.00
2018-12-24T10:39:45.611Z,1056.00
2018-12-24T10:40:45.560Z,1196.00
2018-12-24T10:41:45.495Z,1160.00
2018-12-24T10:42:45.470Z,1032.00
2018-12-24T10:43:45.390Z,960.00
2018-12-24T10:44:45.331Z,884.00
2018-12-24T10:45:45.271Z,792.00
2018-12-24T10:46:45.224Z,716.00
2018-12-24T10:47:45.191Z,652.00
2018-12-24T10:48:46.576Z,572.00
2018-12-24T10:49:45.078Z,552.00
2018-12-24T10:50:44.987Z,524.00
2018-12-24T10:51:44.932Z,468.00
2018-12-24T10:52:44.876Z,480.00
2018-12-24T10:53:44.822Z,484.00
2018-12-24T10:54:44.807Z,484.00
2018-12-24T10:55:44.707Z,440.00
2018-12-24T10:56:44.686Z,400.00
2018-12-24T10:57:44.590Z,372.00
2018-12-24T10:58:44.537Z,360.00
2018-12-24T10:59:44.520Z,384.00
2018-12-24T11:00:44.425Z,400.00
2018-12-24T11:01:44.817Z,392.00
2018-12-24T11:02:44.314Z,392.00
2018-12-24T11:03:44.255Z,444.00
2018-12-24T11:04:44.233Z,476.00
2018-12-24T11:05:44.140Z,496.00
2018-12-24T11:06:44.083Z,500.00
2018-12-24T11:07:44.060Z,508.00
2018-12-24T11:08:43.969Z,524.00
2018-12-24T11:09:43.962Z,536.00
2018-12-24T11:10:43.855Z,532.00
2018-12-24T11:11:43.799Z,548.00
2018-12-24T11:12:43.746Z,556.00
2018-12-24T11:13:43.687Z,560.00
2018-12-24T11:14:43.666Z,536.00
2018-12-24T11:15:43.574Z,516.00
2018-12-24T11:16:43.518Z,480.00
2018-12-24T11:17:43.460Z,452.00
2018-12-24T11:18:43.442Z,420.00
2018-12-24T11:19:43.347Z,372.00
2018-12-24T11:20:43.291Z,372.00
2018-12-24T11:21:43.236Z,352.00
2018-12-24T11:22:43.177Z,324.00
2018-12-24T11:23:43.155Z,304.00
2018-12-24T11:24:43.063Z,320.00
2018-12-24T11:25:43.009Z,312.00
2018-12-24T11:26:42.950Z,316.00
2018-12-24T11:27:42.892Z,320.00
2018-12-24T11:28:42.870Z,284.00
2018-12-24T11:29:42.781Z,264.00
2018-12-24T11:30:42.726Z,228.00
2018-12-24T11:31:42.669Z,216.00
2018-12-24T11:32:42.652Z,204.00
2018-12-24T11:33:42.552Z,188.00
2018-12-24T11:34:42.494Z,200.00
2018-12-24T11:35:42.444Z,200.00
2018-12-24T11:36:42.393Z,192.00
2018-12-24T11:37:42.360Z,180.00
2018-12-24T11:38:42.269Z,200.00
2018-12-24T11:39:42.211Z,216.00
2018-12-24T11:40:42.164Z,248.00
2018-12-24T11:41:42.131Z,268.00
2018-12-24T11:42:42.044Z,284.00
2018-12-24T11:43:41.987Z,284.00
2018-12-24T11:44:41.927Z,292.00
2018-12-24T11:45:41.906Z,272.00
2018-12-24T11:46:41.817Z,268.00
2018-12-24T11:47:41.759Z,272.00
2018-12-24T11:48:41.738Z,280.00
2018-12-24T11:49:41.642Z,284.00
2018-12-24T11:50:41.586Z,292.00
2018-12-24T11:51:41.565Z,312.00
2018-12-24T11:52:41.474Z,348.00
2018-12-24T11:53:41.416Z,372.00
2018-12-24T11:54:41.360Z,408.00
2018-12-24T11:55:41.300Z,424.00
2018-12-24T11:56:41.288Z,436.00
2018-12-24T11:57:41.238Z,436.00
2018-12-24T11:58:41.141Z,436.00
2018-12-24T11:59:41.113Z,440.00
2018-12-24T12:00:41.017Z,456.00
2018-12-24T12:01:40.960Z,472.00
2018-12-24T12:02:40.940Z,504.00
2018-12-24T12:03:40.850Z,520.00
2018-12-24T12:04:40.805Z,524.00
2018-12-24T12:05:40.734Z,508.00
2018-12-24T12:06:40.687Z,512.00
2018-12-24T12:07:40.659Z,512.00
2018-12-24T12:08:40.562Z,508.00
2018-12-24T12:09:40.544Z,488.00
2018-12-24T12:10:40.450Z,464.00
2018-12-24T12:11:40.391Z,428.00
2018-12-24T12:12:40.351Z,396.00
2018-12-24T12:13:40.278Z,372.00
2018-12-24T12:14:40.262Z,372.00
2018-12-24T12:15:42.744Z,368.00
2018-12-24T12:16:40.110Z,380.00
2018-12-24T12:17:40.051Z,416.00
2018-12-24T12:18:39.994Z,444.00
2018-12-24T12:19:39.974Z,464.00
2018-12-24T12:20:39.891Z,436.00
2018-12-24T12:21:39.825Z,428.00
2018-12-24T12:22:39.771Z,408.00
2018-12-24T12:23:39.751Z,392.00
2018-12-24T12:24:39.655Z,396.00
2018-12-24T12:25:39.632Z,416.00
2018-12-24T12:26:39.544Z,428.00
2018-12-24T12:27:39.487Z,444.00
2018-12-24T12:28:39.437Z,444.00
2018-12-24T12:29:39.372Z,432.00
2018-12-24T12:30:39.347Z,416.00
2018-12-24T12:31:39.260Z,400.00
2018-12-24T12:32:39.201Z,368.00
2018-12-24T12:33:39.147Z,356.00
2018-12-24T12:34:39.085Z,368.00
2018-12-24T12:35:39.065Z,412.00
2018-12-24T12:36:38.974Z,448.00
2018-12-24T12:37:38.917Z,424.00
2018-12-24T12:38:38.867Z,380.00
2018-12-24T12:39:38.804Z,328.00
2018-12-24T12:40:38.789Z,260.00
2018-12-24T12:41:38.693Z,220.00
2018-12-24T12:42:38.640Z,200.00
2018-12-24T12:43:38.579Z,200.00
2018-12-24T12:44:38.567Z,192.00
2018-12-24T12:45:38.473Z,184.00
2018-12-24T12:46:38.419Z,184.00
2018-12-24T12:47:38.348Z,184.00
2018-12-24T12:48:38.296Z,200.00
2018-12-24T12:49:38.272Z,212.00
2018-12-24T12:50:38.184Z,220.00
2018-12-24T12:51:38.121Z,240.00
2018-12-24T12:52:38.065Z,256.00
2018-12-24T12:53:38.059Z,268.00
2018-12-24T12:54:37.954Z,256.00
2018-12-24T12:55:37.896Z,264.00